logo
Rechercher aéroport 
image banner adimage banner adimage banner ad
image banner ad

YWDM - Waddamana

Situé à Waddamana, Australia

ICAO - , IATA -

Données fournies par Airmate  

Information générale

Coordonnées: S42°7'46" E146°44'45"
Élévation : 1894 feet MSL.
Variation magnétique : 14° East
Voir autres Aéroports à Tasmania

Données opérationnelles

Special qualification required
Heure actuelle UTC:
Heure actuelle locale:
Météo à : YMLT - Launceston ( 76 km )
METAR: YMLT 171630Z AUTO 21007KT 9999 // SCT027 02/01 Q1020 RF00.0/000.0
Voir NOTAMs / SUP AIP / TFR affectant cet aéroport [VIEW]
Fréquences de communication: [VIEW]

Pistes:

Coordonnées de l'aéroport

Adresse: Waddamana Australia

Vue satellite de YWDM